Kingsland, Arkansas
Current Conditions -  °F | °C
As of 2:53 PM on Wednesday 26 Nov 2014 (Local Time) from KPBF Reporting Station
Clear Clear  
Wind Chill: 59°   Ceiling: Unl
Heat Index: 59°   Visibility: 10mi
Dew Point: 33°   Wind: 10mph
Humidity: 38%   Direction: 310°NW
Pressure: 30.06"   Gusts: NA
Location:  33.86°N, 92.29°W
Report Text: KPBF 262053Z AUTO 31009KT 10SM CLR 15/01 A3006 RMK AO2 SLP178 T01500006 51018
Loading
Personal Weather Stations






























Interactive Weather Map New forecast layout! Learn more

10-Day Weather Forecast

Advertisements
Track Severe Weather on mobile